createdAt,value
2022-08-26T00:00:04.453Z,100787.16
2022-08-26T00:02:42.390Z,100787.16
2022-08-26T00:05:12.332Z,100785.47
2022-08-26T00:07:41.989Z,100785.69
2022-08-26T00:10:14.266Z,100781.38
2022-08-26T00:12:44.377Z,100793.38
2022-08-26T00:15:19.190Z,100787.06
2022-08-26T00:17:50.277Z,100786.19
2022-08-26T00:20:24.401Z,100795.66
2022-08-26T00:22:56.010Z,100785.66
2022-08-26T00:25:26.109Z,100771.94
2022-08-26T00:27:56.078Z,100784.78
2022-08-26T00:30:31.709Z,100782.16
2022-08-26T00:33:01.740Z,100791.56
2022-08-26T00:35:33.547Z,100788.97
2022-08-26T00:38:04.145Z,100779.63
2022-08-26T00:40:36.827Z,100763.75
2022-08-26T00:43:09.621Z,100779.63
2022-08-26T00:45:49.651Z,100778.03
2022-08-26T00:48:22.982Z,100764.78
2022-08-26T00:50:57.482Z,100782.88
2022-08-26T00:53:31.053Z,100778.53
2022-08-26T00:56:06.715Z,100777.28
2022-08-26T00:58:37.201Z,100785.31
2022-08-26T01:01:09.578Z,100756.56
2022-08-26T01:03:40.589Z,100782.53
2022-08-26T01:06:13.136Z,100760.88
2022-08-26T01:08:43.516Z,100778.94
2022-08-26T01:11:15.254Z,100777.91
2022-08-26T01:13:47.561Z,100774.72
2022-08-26T01:16:19.937Z,100774.91
2022-08-26T01:18:50.679Z,100770.78
2022-08-26T01:21:29.428Z,100783.25
2022-08-26T01:24:02.901Z,100781.34
2022-08-26T01:26:35.123Z,100774.06
2022-08-26T01:29:09.038Z,100781.13
2022-08-26T01:31:46.004Z,100783.53
2022-08-26T01:34:20.608Z,100781.16
2022-08-26T01:36:51.801Z,100777.50
2022-08-26T01:39:24.361Z,100781.84
2022-08-26T01:41:58.454Z,100782.34
2022-08-26T01:44:37.423Z,100786.22
2022-08-26T01:47:09.499Z,100786.22
2022-08-26T01:49:40.252Z,100786.47
2022-08-26T01:52:12.614Z,100788.28
2022-08-26T01:54:46.281Z,100785.50
2022-08-26T01:57:21.378Z,100776.09
2022-08-26T01:59:52.426Z,100784.69
2022-08-26T02:02:22.136Z,100780.47
2022-08-26T02:05:00.001Z,100785.53
2022-08-26T02:07:30.709Z,100783.03
2022-08-26T02:10:07.078Z,100782.13
2022-08-26T02:12:37.150Z,100773.81
2022-08-26T02:15:12.247Z,100784.81
2022-08-26T02:17:47.323Z,100778.00
2022-08-26T02:20:20.869Z,100779.22
2022-08-26T02:22:50.965Z,100785.34
2022-08-26T02:25:28.032Z,100783.84
2022-08-26T02:27:58.839Z,100784.09
2022-08-26T02:30:32.078Z,100762.63
2022-08-26T02:33:03.986Z,100774.53
2022-08-26T02:35:36.651Z,100781.22
2022-08-26T02:38:09.810Z,100778.50
2022-08-26T02:40:44.980Z,100768.19
2022-08-26T02:43:15.044Z,100767.13
2022-08-26T02:45:45.994Z,100774.13
2022-08-26T02:48:18.748Z,100768.03
2022-08-26T02:50:49.069Z,100768.91
2022-08-26T02:53:25.047Z,100762.75
2022-08-26T02:55:57.974Z,100774.09
2022-08-26T02:58:29.587Z,100771.69
2022-08-26T03:00:59.632Z,100766.06
2022-08-26T03:03:32.046Z,100765.22
2022-08-26T03:06:02.294Z,100753.78
2022-08-26T03:08:32.018Z,100753.91
2022-08-26T03:11:04.360Z,100759.13
2022-08-26T03:13:36.314Z,100750.63
2022-08-26T03:16:07.090Z,100752.31
2022-08-26T03:18:37.250Z,100751.66
2022-08-26T03:21:11.849Z,100747.31
2022-08-26T03:23:43.694Z,100751.81
2022-08-26T03:26:17.754Z,100742.97
2022-08-26T03:28:59.730Z,100718.44
2022-08-26T03:31:29.551Z,100740.66
2022-08-26T03:33:59.958Z,100744.75
2022-08-26T03:36:29.815Z,100750.22
2022-08-26T03:38:59.956Z,100734.84
2022-08-26T03:41:32.853Z,100744.72
2022-08-26T03:44:02.553Z,100744.88
2022-08-26T03:46:34.614Z,100741.66
2022-08-26T03:49:05.889Z,100746.59
2022-08-26T03:51:38.850Z,100745.66
2022-08-26T03:54:10.237Z,100738.25
2022-08-26T03:56:42.474Z,100749.78
2022-08-26T03:59:16.357Z,100726.91
2022-08-26T04:01:46.120Z,100729.97
2022-08-26T04:04:18.270Z,100747.19
2022-08-26T04:06:52.803Z,100742.88
2022-08-26T04:09:23.355Z,100744.38
2022-08-26T04:11:58.657Z,100740.22
2022-08-26T04:14:31.216Z,100742.06
2022-08-26T04:17:04.966Z,100745.31
2022-08-26T04:19:35.992Z,100738.66
2022-08-26T04:22:05.690Z,100740.97
2022-08-26T04:24:36.308Z,100736.28
2022-08-26T04:27:10.330Z,100731.41
2022-08-26T04:29:41.603Z,100722.94
2022-08-26T04:32:11.384Z,100735.00
2022-08-26T04:34:41.934Z,100733.28
2022-08-26T04:37:11.978Z,100729.72
2022-08-26T04:39:41.661Z,100681.16
2022-08-26T04:42:14.001Z,100713.56
2022-08-26T04:44:43.654Z,100734.91
2022-08-26T04:47:13.346Z,100737.50
2022-08-26T04:49:43.173Z,100734.81
2022-08-26T04:52:13.024Z,100743.53
2022-08-26T04:54:42.714Z,100738.44
2022-08-26T04:57:16.181Z,100730.75
2022-08-26T04:59:45.811Z,100740.97
2022-08-26T05:02:15.777Z,100739.94
2022-08-26T05:04:45.539Z,100746.00
2022-08-26T05:07:15.259Z,100741.59
2022-08-26T05:09:47.399Z,100724.50
2022-08-26T05:12:20.755Z,100720.19
2022-08-26T05:14:50.502Z,100746.84
2022-08-26T05:17:21.669Z,100736.47
2022-08-26T05:19:52.251Z,100744.81
2022-08-26T05:22:22.734Z,100745.00
2022-08-26T05:24:52.637Z,100758.06
2022-08-26T05:27:25.972Z,100757.13
2022-08-26T05:30:00.038Z,100760.34
2022-08-26T05:32:31.775Z,100732.84
2022-08-26T05:35:01.508Z,100750.78
2022-08-26T05:37:32.264Z,100737.91
2022-08-26T05:40:02.173Z,100748.91
2022-08-26T05:42:36.351Z,100754.44
2022-08-26T05:45:07.370Z,100746.56
2022-08-26T05:47:43.074Z,100761.84
2022-08-26T05:50:13.861Z,100758.63
2022-08-26T05:52:46.092Z,100763.56
2022-08-26T05:55:23.871Z,100769.22
2022-08-26T05:57:57.605Z,100742.06
2022-08-26T06:00:28.413Z,100769.13
2022-08-26T06:02:58.623Z,100758.28
2022-08-26T06:05:35.372Z,100745.03
2022-08-26T06:08:16.309Z,100768.13
2022-08-26T06:10:50.982Z,100744.59
2022-08-26T06:13:30.318Z,100769.06
2022-08-26T06:16:08.481Z,100756.72
2022-08-26T06:18:42.157Z,100768.31
2022-08-26T06:21:20.153Z,100765.19
2022-08-26T06:24:04.141Z,100748.28
2022-08-26T06:26:36.594Z,100760.84
2022-08-26T06:29:24.109Z,100766.28
2022-08-26T06:31:56.404Z,100756.06
2022-08-26T06:34:29.880Z,100770.63
2022-08-26T06:37:03.717Z,100771.06
2022-08-26T06:39:34.133Z,100764.94
2022-08-26T06:42:07.305Z,100766.66
2022-08-26T06:44:41.732Z,100752.56
2022-08-26T06:47:15.560Z,100766.84
2022-08-26T06:49:46.265Z,100777.00
2022-08-26T06:52:22.956Z,100771.69
2022-08-26T06:54:54.430Z,100769.59
2022-08-26T06:57:25.199Z,100775.00
2022-08-26T06:59:57.527Z,100768.81
2022-08-26T07:02:28.599Z,100746.50
2022-08-26T07:04:59.758Z,100781.66
2022-08-26T07:07:29.627Z,100782.03
2022-08-26T07:09:59.842Z,100781.50
2022-08-26T07:12:29.911Z,100778.53
2022-08-26T07:15:03.370Z,100784.34
2022-08-26T07:17:35.283Z,100778.44
2022-08-26T07:20:07.344Z,100789.16
2022-08-26T07:22:43.814Z,100784.88
2022-08-26T07:25:13.592Z,100766.03
2022-08-26T07:27:43.285Z,100780.88
2022-08-26T07:30:17.109Z,100774.47
2022-08-26T07:32:46.888Z,100786.91
2022-08-26T07:35:16.995Z,100780.94
2022-08-26T07:37:47.098Z,100787.81
2022-08-26T07:40:16.894Z,100791.41
2022-08-26T07:42:47.670Z,100773.00
2022-08-26T07:45:22.197Z,100786.47
2022-08-26T07:47:53.048Z,100793.28
2022-08-26T07:50:47.090Z,100788.38
2022-08-26T07:53:14.606Z,100792.59
2022-08-26T07:55:47.935Z,100794.09
2022-08-26T07:58:18.546Z,100794.97
2022-08-26T08:00:51.481Z,100796.91
2022-08-26T08:03:27.118Z,100781.75
2022-08-26T08:05:56.862Z,100802.31
2022-08-26T08:08:29.297Z,100793.09
2022-08-26T08:10:59.763Z,100801.50
2022-08-26T08:13:29.697Z,100776.84
2022-08-26T08:16:01.953Z,100797.56
2022-08-26T08:18:31.671Z,100800.75
2022-08-26T08:21:21.377Z,100784.19
2022-08-26T08:23:55.482Z,100795.66
2022-08-26T08:26:27.314Z,100791.38
2022-08-26T08:28:59.053Z,100790.78
2022-08-26T08:34:25.910Z,100794.94
2022-08-26T08:36:56.530Z,100788.91
2022-08-26T08:39:26.976Z,100794.00
2022-08-26T08:42:31.537Z,100781.97
2022-08-26T08:45:04.534Z,100798.53
2022-08-26T08:47:42.135Z,100802.84
2022-08-26T08:50:24.564Z,100776.22
2022-08-26T08:53:05.791Z,100763.94
2022-08-26T08:55:46.364Z,100780.66
2022-08-26T08:58:21.927Z,100767.53
2022-08-26T09:01:00.779Z,100785.16
2022-08-26T09:03:56.845Z,100777.63
2022-08-26T09:06:30.581Z,100772.22
2022-08-26T09:09:02.746Z,100768.22
2022-08-26T09:11:33.801Z,100784.16
2022-08-26T09:14:03.646Z,100769.25
2022-08-26T09:16:43.981Z,100761.81
2022-08-26T09:19:24.207Z,100775.38
2022-08-26T09:21:58.116Z,100771.28
2022-08-26T09:24:32.166Z,100784.69
2022-08-26T09:27:01.961Z,100775.84
2022-08-26T09:29:36.089Z,100763.06
2022-08-26T09:32:24.170Z,100776.03
2022-08-26T09:35:03.327Z,100749.75
2022-08-26T09:37:40.088Z,100779.91
2022-08-26T09:40:20.705Z,100775.50
2022-08-26T09:43:09.373Z,100766.47
2022-08-26T09:45:40.045Z,100762.53
2022-08-26T09:48:11.300Z,100772.97
2022-08-26T09:50:57.385Z,100740.38
2022-08-26T09:53:30.476Z,100754.28
2022-08-26T09:56:18.052Z,100755.22
2022-08-26T09:58:50.151Z,100751.19
2022-08-26T10:01:32.209Z,100745.31
2022-08-26T10:04:10.947Z,100746.56
2022-08-26T10:06:59.271Z,100752.84
2022-08-26T10:09:31.487Z,100758.53
2022-08-26T10:12:06.749Z,100744.03
2022-08-26T10:14:48.922Z,100750.09
2022-08-26T10:17:32.730Z,100746.28
2022-08-26T10:20:22.653Z,100708.63
2022-08-26T10:23:02.393Z,100740.50
2022-08-26T10:25:37.426Z,100738.44
2022-08-26T10:28:14.729Z,100728.63
2022-08-26T10:30:49.799Z,100697.25
2022-08-26T10:33:20.078Z,100714.91
2022-08-26T10:35:54.306Z,100686.66
2022-08-26T10:38:32.157Z,100725.94
2022-08-26T10:41:10.335Z,100725.75
2022-08-26T10:43:45.705Z,100714.63
2022-08-26T10:46:27.312Z,100726.28
2022-08-26T10:49:01.047Z,100714.81
2022-08-26T10:51:38.740Z,100711.00
2022-08-26T10:54:18.226Z,100722.38
2022-08-26T10:56:58.172Z,100688.78
2022-08-26T10:59:43.676Z,100708.75
2022-08-26T11:02:24.708Z,100710.16
2022-08-26T11:05:00.050Z,100657.94
2022-08-26T11:07:39.375Z,100701.16
2022-08-26T11:10:34.667Z,100633.78
2022-08-26T11:13:08.331Z,100704.97
2022-08-26T11:16:01.522Z,100706.34
2022-08-26T11:18:56.113Z,100701.47
2022-08-26T11:21:54.494Z,100692.56
2022-08-26T11:24:54.253Z,100704.34
2022-08-26T11:27:56.074Z,100700.88
2022-08-26T11:30:55.485Z,100691.47
2022-08-26T11:34:01.406Z,100692.19
2022-08-26T11:36:42.802Z,100685.59
2022-08-26T11:39:21.560Z,100688.44
2022-08-26T11:41:53.836Z,100680.53
2022-08-26T11:44:25.621Z,100685.78
2022-08-26T11:47:01.195Z,100678.72
2022-08-26T11:49:33.322Z,100685.75
2022-08-26T11:52:22.140Z,100598.69
2022-08-26T11:55:06.632Z,100678.72
2022-08-26T11:57:38.892Z,100664.69
2022-08-26T12:00:12.546Z,100677.19
2022-08-26T12:02:46.970Z,100675.19
2022-08-26T12:05:21.692Z,100682.38
2022-08-26T12:07:54.866Z,100680.50
2022-08-26T12:10:31.940Z,100686.41
2022-08-26T12:13:03.123Z,100691.25
2022-08-26T12:15:34.972Z,100681.72
2022-08-26T12:18:28.899Z,100673.44
2022-08-26T12:21:02.173Z,100679.53
2022-08-26T12:23:43.399Z,100679.13
2022-08-26T12:26:22.576Z,100710.34
2022-08-26T12:28:57.601Z,100733.19
2022-08-26T12:31:34.079Z,100709.91
2022-08-26T12:34:17.678Z,100687.69
2022-08-26T12:36:50.390Z,100699.25
2022-08-26T12:39:29.402Z,100708.69
2022-08-26T12:42:01.138Z,100705.09
2022-08-26T12:44:39.026Z,100691.31
2022-08-26T12:47:12.096Z,100677.84
2022-08-26T12:49:47.983Z,100681.19
2022-08-26T12:52:30.108Z,100649.13
2022-08-26T12:55:03.015Z,100651.28
2022-08-26T12:57:36.290Z,100654.09
2022-08-26T13:00:42.049Z,100611.19
2022-08-26T13:03:34.171Z,100685.44
2022-08-26T13:06:31.587Z,100688.34
2022-08-26T13:09:05.661Z,100670.63
2022-08-26T13:11:37.999Z,100709.78
2022-08-26T13:14:11.311Z,100744.00
2022-08-26T13:16:43.012Z,100735.22
2022-08-26T13:19:15.549Z,100729.28
2022-08-26T13:21:53.877Z,100676.44
2022-08-26T13:24:28.728Z,100706.13
2022-08-26T13:26:58.727Z,100703.50
2022-08-26T13:29:28.634Z,100695.34
2022-08-26T13:31:59.555Z,100668.16
2022-08-26T13:34:29.845Z,100689.53
2022-08-26T13:37:02.382Z,100682.72
2022-08-26T13:39:32.033Z,100688.94
2022-08-26T13:42:01.931Z,100676.03
2022-08-26T13:44:32.616Z,100668.28
2022-08-26T13:47:02.588Z,100666.25
2022-08-26T13:49:33.241Z,100643.50
2022-08-26T13:52:06.933Z,100662.50
2022-08-26T13:54:36.850Z,100633.59
2022-08-26T13:57:06.950Z,100636.16
2022-08-26T13:59:36.677Z,100625.94
2022-08-26T14:02:07.878Z,100655.06
2022-08-26T14:04:39.985Z,100681.81
2022-08-26T14:07:16.870Z,100675.25
2022-08-26T14:09:47.510Z,100660.50
2022-08-26T14:12:19.659Z,100683.16
2022-08-26T14:14:50.377Z,100655.28
2022-08-26T14:17:23.597Z,100657.09
2022-08-26T14:19:53.703Z,100639.06
2022-08-26T14:22:27.004Z,100658.09
2022-08-26T14:24:58.641Z,100664.59
2022-08-26T14:27:28.476Z,100595.41
2022-08-26T14:29:59.494Z,100660.50
2022-08-26T14:32:32.228Z,100661.63
2022-08-26T14:35:01.901Z,100670.81
2022-08-26T14:37:34.583Z,100659.00
2022-08-26T14:40:05.943Z,100643.78
2022-08-26T14:42:35.914Z,100647.91
2022-08-26T14:45:11.436Z,100671.75
2022-08-26T14:47:41.112Z,100675.91
2022-08-26T14:50:12.631Z,100684.28
2022-08-26T14:52:59.332Z,100682.00
2022-08-26T14:55:29.364Z,100684.00
2022-08-26T14:57:59.023Z,100680.56
2022-08-26T15:00:29.127Z,100679.69
2022-08-26T15:02:58.953Z,100671.41
2022-08-26T15:05:28.892Z,100679.19
2022-08-26T15:08:02.685Z,100677.66
2022-08-26T15:10:33.449Z,100689.00
2022-08-26T15:13:05.039Z,100693.72
2022-08-26T15:15:35.699Z,100680.47
2022-08-26T15:18:06.917Z,100681.09
2022-08-26T15:20:37.609Z,100698.34
2022-08-26T15:23:11.198Z,100707.72
2022-08-26T15:25:41.056Z,100687.53
2022-08-26T15:28:11.803Z,100721.47
2022-08-26T15:30:43.142Z,100718.97
2022-08-26T15:33:15.285Z,100726.75
2022-08-26T15:35:46.540Z,100716.25
2022-08-26T15:38:18.822Z,100726.69
2022-08-26T15:40:48.447Z,100718.06
2022-08-26T15:43:28.169Z,100680.81
2022-08-26T15:45:58.769Z,100724.13
2022-08-26T15:48:29.259Z,100731.09
2022-08-26T15:51:01.863Z,100738.09
2022-08-26T15:53:36.767Z,100744.53
2022-08-26T15:56:06.670Z,100747.78
2022-08-26T15:58:37.896Z,100745.75
2022-08-26T16:01:07.928Z,100742.94
2022-08-26T16:03:37.831Z,100745.38
2022-08-26T16:06:08.223Z,100739.47
2022-08-26T16:08:42.008Z,100738.91
2022-08-26T16:11:11.802Z,100728.69
2022-08-26T16:13:41.475Z,100729.59
2022-08-26T16:16:11.267Z,100739.13
2022-08-26T16:18:42.286Z,100713.53
2022-08-26T16:21:14.126Z,100730.47
2022-08-26T16:23:47.822Z,100733.69
2022-08-26T16:26:20.715Z,100725.97
2022-08-26T16:28:50.388Z,100730.78
2022-08-26T16:31:21.245Z,100728.69
2022-08-26T16:33:51.448Z,100710.38
2022-08-26T16:36:21.350Z,100722.88
2022-08-26T16:38:56.531Z,100697.00
2022-08-26T16:41:28.016Z,100730.25
2022-08-26T16:43:58.683Z,100726.94
2022-08-26T16:46:31.552Z,100750.72
2022-08-26T16:49:03.967Z,100747.44
2022-08-26T16:51:37.822Z,100753.94
2022-08-26T16:54:11.332Z,100753.88
2022-08-26T16:56:41.633Z,100744.03
2022-08-26T16:59:13.549Z,100775.09
2022-08-26T17:01:43.233Z,100766.56
2022-08-26T17:04:13.905Z,100755.69
2022-08-26T17:06:43.695Z,100770.53
2022-08-26T17:09:17.128Z,100767.94
2022-08-26T17:11:47.832Z,100738.66
2022-08-26T17:14:17.484Z,100798.75
2022-08-26T17:16:51.133Z,100788.34
2022-08-26T17:19:21.710Z,100771.59
2022-08-26T17:21:52.327Z,100795.56
2022-08-26T17:24:24.554Z,100782.72
2022-08-26T17:26:55.629Z,100794.72
2022-08-26T17:29:26.524Z,100793.66
2022-08-26T17:31:56.435Z,100755.22
2022-08-26T17:34:26.599Z,100785.28
2022-08-26T17:36:57.492Z,100788.53
2022-08-26T17:39:29.651Z,100785.03
2022-08-26T17:42:06.074Z,100778.06
2022-08-26T17:44:36.737Z,100761.19
2022-08-26T17:47:08.316Z,100755.97
2022-08-26T17:49:39.031Z,100766.19
2022-08-26T17:52:11.668Z,100760.31
2022-08-26T17:54:44.159Z,100760.47
2022-08-26T17:57:13.793Z,100741.16
2022-08-26T17:59:43.609Z,100759.31
2022-08-26T18:02:13.240Z,100783.03
2022-08-26T18:04:43.839Z,100755.94
2022-08-26T18:07:13.884Z,100791.97
2022-08-26T18:09:46.423Z,100724.53
2022-08-26T18:12:17.839Z,100797.34
2022-08-26T18:14:48.503Z,100802.66
2022-08-26T18:17:19.399Z,100809.53
2022-08-26T18:19:50.181Z,100812.22
2022-08-26T18:22:21.885Z,100808.81
2022-08-26T18:24:59.230Z,100819.91
2022-08-26T18:27:30.197Z,100820.19
2022-08-26T18:30:00.062Z,100814.22
2022-08-26T18:32:31.652Z,100817.78
2022-08-26T18:35:02.451Z,100817.91
2022-08-26T18:37:34.231Z,100823.16
2022-08-26T18:40:07.295Z,100804.50
2022-08-26T18:42:37.506Z,100819.19
2022-08-26T18:45:08.853Z,100827.72
2022-08-26T18:47:39.534Z,100813.22
2022-08-26T18:50:11.675Z,100817.81
2022-08-26T18:52:42.273Z,100805.97
2022-08-26T18:55:14.444Z,100818.09
2022-08-26T18:57:47.220Z,100811.09
2022-08-26T19:00:17.770Z,100815.19
2022-08-26T19:02:51.902Z,100817.63
2022-08-26T19:05:25.536Z,100827.22
2022-08-26T19:07:57.179Z,100825.50
2022-08-26T19:10:32.826Z,100833.16
2022-08-26T19:13:03.653Z,100826.63
2022-08-26T19:15:40.346Z,100833.63
2022-08-26T19:18:11.382Z,100819.88
2022-08-26T19:20:46.416Z,100834.56
2022-08-26T19:23:31.299Z,100832.16
2022-08-26T19:26:09.019Z,100828.16
2022-08-26T19:28:42.888Z,100830.69
2022-08-26T19:31:15.598Z,100831.47
2022-08-26T19:33:46.634Z,100837.81
2022-08-26T19:36:18.573Z,100834.69
2022-08-26T19:38:51.148Z,100836.63
2022-08-26T19:41:36.802Z,100830.53
2022-08-26T19:44:12.948Z,100837.94
2022-08-26T19:46:44.533Z,100832.72
2022-08-26T19:49:14.140Z,100835.50
2022-08-26T19:51:43.755Z,100838.97
2022-08-26T19:54:14.382Z,100844.44
2022-08-26T19:56:49.597Z,100836.88
2022-08-26T19:59:20.039Z,100844.13
2022-08-26T20:02:00.888Z,100824.56
2022-08-26T20:04:31.244Z,100793.66
2022-08-26T20:07:01.998Z,100798.75
2022-08-26T20:09:34.038Z,100832.47
2022-08-26T20:12:09.593Z,100800.84
2022-08-26T20:14:39.451Z,100838.47
2022-08-26T20:17:09.442Z,100853.16
2022-08-26T20:19:52.882Z,100836.75
2022-08-26T20:22:23.461Z,100860.13
2022-08-26T20:24:54.455Z,100842.91
2022-08-26T20:27:35.555Z,100855.75
2022-08-26T20:30:10.438Z,100846.34
2022-08-26T20:32:42.650Z,100854.03
2022-08-26T20:35:14.904Z,100830.97
2022-08-26T20:37:45.446Z,100848.16
2022-08-26T20:40:17.493Z,100830.66
2022-08-26T20:42:49.659Z,100847.00
2022-08-26T20:45:19.478Z,100847.88
2022-08-26T20:47:50.338Z,100849.59
2022-08-26T20:50:21.065Z,100855.41
2022-08-26T20:52:50.624Z,100838.69
2022-08-26T20:55:20.268Z,100870.81
2022-08-26T20:57:53.335Z,100868.53
2022-08-26T21:00:27.088Z,100870.06
2022-08-26T21:02:59.518Z,100853.19
2022-08-26T21:05:29.492Z,100882.22
2022-08-26T21:08:00.057Z,100872.03
2022-08-26T21:10:31.486Z,100866.97
2022-08-26T21:13:03.754Z,100884.81
2022-08-26T21:15:34.535Z,100767.03
2022-08-26T21:18:04.206Z,100901.34
2022-08-26T21:20:35.186Z,100898.41
2022-08-26T21:23:06.034Z,100909.31
2022-08-26T21:25:36.662Z,100890.59
2022-08-26T21:28:10.121Z,100912.78
2022-08-26T21:30:41.672Z,100889.78
2022-08-26T21:33:12.419Z,100903.47
2022-08-26T21:35:42.054Z,100910.56
2022-08-26T21:38:11.789Z,100905.50
2022-08-26T21:40:41.508Z,100901.44
2022-08-26T21:43:25.967Z,100909.78
2022-08-26T21:46:12.612Z,100896.25
2022-08-26T21:48:47.696Z,100892.19
2022-08-26T21:51:22.307Z,100890.44
2022-08-26T21:53:52.973Z,100906.09
2022-08-26T21:56:25.481Z,100901.81
2022-08-26T21:58:59.657Z,100910.44
2022-08-26T22:01:32.525Z,100902.47
2022-08-26T22:04:03.839Z,100904.19
2022-08-26T22:06:36.147Z,100885.34
2022-08-26T22:09:06.963Z,100850.41
2022-08-26T22:11:37.881Z,100909.50
2022-08-26T22:14:10.108Z,100910.47
2022-08-26T22:16:39.768Z,100913.91
2022-08-26T22:19:13.674Z,100913.03
2022-08-26T22:21:46.885Z,100906.94
2022-08-26T22:24:16.426Z,100911.22
2022-08-26T22:26:46.126Z,100915.53
2022-08-26T22:29:18.316Z,100915.31
2022-08-26T22:31:48.402Z,100916.22
2022-08-26T22:34:20.729Z,100921.38
2022-08-26T22:36:51.891Z,100927.53
2022-08-26T22:39:24.585Z,100902.66
2022-08-26T22:41:55.263Z,100898.25
2022-08-26T22:44:27.432Z,100913.66
2022-08-26T22:46:57.036Z,100916.81
2022-08-26T22:49:27.019Z,100911.81
2022-08-26T22:51:56.780Z,100901.31
2022-08-26T22:54:26.543Z,100914.25
2022-08-26T22:56:56.064Z,100892.94
2022-08-26T22:59:28.197Z,100920.59
2022-08-26T23:01:57.739Z,100907.72
2022-08-26T23:04:27.307Z,100906.88
2022-08-26T23:06:57.001Z,100919.56
2022-08-26T23:09:26.578Z,100896.41
2022-08-26T23:11:56.605Z,100915.97
2022-08-26T23:14:29.119Z,100921.34
2022-08-26T23:16:58.804Z,100901.97
2022-08-26T23:19:28.430Z,100907.94
2022-08-26T23:21:58.126Z,100904.50
2022-08-26T23:24:27.687Z,100910.75
2022-08-26T23:26:57.253Z,100904.97
2022-08-26T23:29:30.279Z,100912.81
2022-08-26T23:32:00.338Z,100902.63
2022-08-26T23:34:42.658Z,100880.28
2022-08-26T23:37:12.319Z,100902.69
2022-08-26T23:39:41.934Z,100904.38
2022-08-26T23:42:12.458Z,100895.69
2022-08-26T23:44:44.722Z,100887.09
2022-08-26T23:47:15.571Z,100895.84
2022-08-26T23:49:45.317Z,100884.72
2022-08-26T23:52:27.432Z,100882.97
2022-08-26T23:54:57.265Z,100879.53
2022-08-26T23:57:28.289Z,100879.47
